Terminal Aerodrome Forecast
Issued by NWS

Home | Current Version | Previous Version | Text Only | Print | Product List | Glossary On
Versions: 1 2 3 4 5 6 7 8 9 10 11 12
000
FTUS42 TJSJ 291700
TAFIST
TAF
TIST 291739Z 2918/3018 13011KT P6SM FEW025 SCT035 SCT045
     FM292200 07008KT P6SM SCT025 SCT035
     FM300800 08004KT P6SM VCSH SCT024 SCT035
     FM301430 10010KT P6SM VCSH SCT025 SCT035 SCT080
      AMD NOT SKED=

USA.gov is the U.S. government's official web portal to all federal, state and local government web resources and services.